sensor_id;sensor_type;location;lat;lon;timestamp;P1;durP1;ratioP1;P2;durP2;ratioP2
22955;SDS011;40888;48.148;11.526;2023-11-19T13:54:07;0.80;;;0.73;;
22955;SDS011;40888;48.148;11.526;2023-11-19T13:56:33;0.60;;;0.60;;
22955;SDS011;40888;48.148;11.526;2023-11-19T13:58:59;1.00;;;0.60;;
22955;SDS011;40888;48.148;11.526;2023-11-19T14:01:25;0.97;;;0.80;;
22955;SDS011;40888;48.148;11.526;2023-11-19T14:03:52;0.73;;;0.73;;
22955;SDS011;40888;48.148;11.526;2023-11-19T14:06:18;1.70;;;0.73;;
22955;SDS011;40888;48.148;11.526;2023-11-19T14:08:44;0.70;;;0.70;;
22955;SDS011;40888;48.148;11.526;2023-11-19T14:11:10;1.23;;;0.80;;
22955;SDS011;40888;48.148;11.526;2023-11-19T14:13:36;0.73;;;0.73;;
22955;SDS011;40888;48.148;11.526;2023-11-19T14:16:02;0.70;;;0.70;;
22955;SDS011;40888;48.148;11.526;2023-11-19T14:18:30;2.73;;;0.73;;
22955;SDS011;40888;48.148;11.526;2023-11-19T14:20:56;2.10;;;0.53;;
22955;SDS011;40888;48.148;11.526;2023-11-19T14:23:23;0.83;;;0.80;;
22955;SDS011;40888;48.148;11.526;2023-11-19T14:25:50;0.67;;;0.67;;
22955;SDS011;40888;48.148;11.526;2023-11-19T14:28:17;0.70;;;0.70;;
22955;SDS011;40888;48.148;11.526;2023-11-19T14:30:43;1.70;;;0.70;;
22955;SDS011;40888;48.148;11.526;2023-11-19T14:33:10;1.53;;;0.93;;
22955;SDS011;40888;48.148;11.526;2023-11-19T14:35:36;0.83;;;0.50;;
22955;SDS011;40888;48.148;11.526;2023-11-19T14:38:02;0.70;;;0.60;;
22955;SDS011;40888;48.148;11.526;2023-11-19T14:40:30;0.97;;;0.87;;
22955;SDS011;40888;48.148;11.526;2023-11-19T14:42:56;2.37;;;0.60;;
22955;SDS011;40888;48.148;11.526;2023-11-19T14:45:22;1.47;;;0.93;;
22955;SDS011;40888;48.148;11.526;2023-11-19T14:47:48;0.50;;;0.40;;
22955;SDS011;40888;48.148;11.526;2023-11-19T14:50:14;0.87;;;0.70;;
22955;SDS011;40888;48.148;11.526;2023-11-19T14:52:41;1.23;;;0.80;;
22955;SDS011;40888;48.148;11.526;2023-11-19T14:55:07;0.70;;;0.70;;
22955;SDS011;40888;48.148;11.526;2023-11-19T14:57:34;0.97;;;0.97;;
22955;SDS011;40888;48.148;11.526;2023-11-19T15:00:01;0.97;;;0.70;;
22955;SDS011;40888;48.148;11.526;2023-11-19T15:02:33;1.43;;;0.90;;
22955;SDS011;40888;48.148;11.526;2023-11-19T15:05:00;0.80;;;0.80;;
22955;SDS011;40888;48.148;11.526;2023-11-19T15:07:26;1.10;;;1.00;;
22955;SDS011;40888;48.148;11.526;2023-11-19T15:09:52;0.73;;;0.70;;
22955;SDS011;40888;48.148;11.526;2023-11-19T15:12:18;0.70;;;0.70;;
22955;SDS011;40888;48.148;11.526;2023-11-19T15:14:44;1.10;;;0.90;;
22955;SDS011;40888;48.148;11.526;2023-11-19T15:17:10;0.43;;;0.43;;
22955;SDS011;40888;48.148;11.526;2023-11-19T15:19:36;0.83;;;0.80;;
22955;SDS011;40888;48.148;11.526;2023-11-19T15:22:02;0.80;;;0.80;;
22955;SDS011;40888;48.148;11.526;2023-11-19T15:24:30;0.73;;;0.73;;
22955;SDS011;40888;48.148;11.526;2023-11-19T15:26:57;0.77;;;0.77;;
22955;SDS011;40888;48.148;11.526;2023-11-19T15:29:23;1.80;;;0.80;;
22955;SDS011;40888;48.148;11.526;2023-11-19T15:31:49;0.80;;;0.80;;
22955;SDS011;40888;48.148;11.526;2023-11-19T15:34:15;0.93;;;0.90;;
22955;SDS011;40888;48.148;11.526;2023-11-19T15:36:41;0.80;;;0.80;;
22955;SDS011;40888;48.148;11.526;2023-11-19T15:39:07;0.90;;;0.90;;
22955;SDS011;40888;48.148;11.526;2023-11-19T15:41:33;1.70;;;0.63;;
22955;SDS011;40888;48.148;11.526;2023-11-19T15:44:00;0.80;;;0.80;;
22955;SDS011;40888;48.148;11.526;2023-11-19T15:46:28;1.70;;;1.60;;
22955;SDS011;40888;48.148;11.526;2023-11-19T15:48:54;1.50;;;0.90;;
22955;SDS011;40888;48.148;11.526;2023-11-19T15:51:20;0.80;;;0.80;;
22955;SDS011;40888;48.148;11.526;2023-11-19T15:53:47;1.40;;;0.90;;
22955;SDS011;40888;48.148;11.526;2023-11-19T15:56:13;0.80;;;0.80;;
22955;SDS011;40888;48.148;11.526;2023-11-19T15:58:39;2.20;;;1.10;;
22955;SDS011;40888;48.148;11.526;2023-11-19T16:01:06;1.47;;;1.00;;
22955;SDS011;40888;48.148;11.526;2023-11-19T16:03:33;1.37;;;0.90;;
22955;SDS011;40888;48.148;11.526;2023-11-19T16:05:59;0.60;;;0.60;;
22955;SDS011;40888;48.148;11.526;2023-11-19T16:08:25;1.30;;;1.10;;
22955;SDS011;40888;48.148;11.526;2023-11-19T16:10:51;1.00;;;1.00;;
22955;SDS011;40888;48.148;11.526;2023-11-19T16:13:17;0.97;;;0.97;;
22955;SDS011;40888;48.148;11.526;2023-11-19T16:15:44;1.33;;;1.23;;
22955;SDS011;40888;48.148;11.526;2023-11-19T16:18:10;1.70;;;1.10;;
22955;SDS011;40888;48.148;11.526;2023-11-19T16:20:38;1.80;;;1.40;;
22955;SDS011;40888;48.148;11.526;2023-11-19T16:23:04;1.40;;;1.30;;
22955;SDS011;40888;48.148;11.526;2023-11-19T16:25:30;1.40;;;1.30;;
22955;SDS011;40888;48.148;11.526;2023-11-19T16:27:56;1.10;;;1.10;;
22955;SDS011;40888;48.148;11.526;2023-11-19T16:30:23;1.47;;;1.37;;
22955;SDS011;40888;48.148;11.526;2023-11-19T16:32:53;1.20;;;1.10;;
22955;SDS011;40888;48.148;11.526;2023-11-19T16:35:22;1.20;;;1.10;;
22955;SDS011;40888;48.148;11.526;2023-11-19T16:37:51;1.73;;;1.10;;
22955;SDS011;40888;48.148;11.526;2023-11-19T16:40:17;1.10;;;1.00;;
22955;SDS011;40888;48.148;11.526;2023-11-19T16:42:43;1.50;;;1.10;;
22955;SDS011;40888;48.148;11.526;2023-11-19T16:45:13;0.90;;;0.90;;
22955;SDS011;40888;48.148;11.526;2023-11-19T16:47:40;1.70;;;1.13;;
22955;SDS011;40888;48.148;11.526;2023-11-19T16:50:06;1.30;;;1.00;;
22955;SDS011;40888;48.148;11.526;2023-11-19T16:52:42;1.90;;;1.37;;
22955;SDS011;40888;48.148;11.526;2023-11-19T16:55:08;1.63;;;1.10;;
22955;SDS011;40888;48.148;11.526;2023-11-19T16:57:40;0.80;;;0.80;;
22955;SDS011;40888;48.148;11.526;2023-11-19T17:00:09;1.23;;;1.20;;
22955;SDS011;40888;48.148;11.526;2023-11-19T17:02:36;1.80;;;1.20;;
22955;SDS011;40888;48.148;11.526;2023-11-19T17:05:02;1.37;;;1.00;;
22955;SDS011;40888;48.148;11.526;2023-11-19T17:07:28;1.23;;;0.83;;
22955;SDS011;40888;48.148;11.526;2023-11-19T17:09:55;1.90;;;0.70;;
22955;SDS011;40888;48.148;11.526;2023-11-19T17:12:21;1.10;;;1.00;;
22955;SDS011;40888;48.148;11.526;2023-11-19T17:14:48;0.90;;;0.90;;
22955;SDS011;40888;48.148;11.526;2023-11-19T17:17:14;1.63;;;1.30;;
22955;SDS011;40888;48.148;11.526;2023-11-19T17:19:40;0.93;;;0.93;;
22955;SDS011;40888;48.148;11.526;2023-11-19T17:22:06;0.87;;;0.77;;
22955;SDS011;40888;48.148;11.526;2023-11-19T17:24:33;0.90;;;0.90;;
22955;SDS011;40888;48.148;11.526;2023-11-19T17:26:59;0.90;;;0.90;;
22955;SDS011;40888;48.148;11.526;2023-11-19T17:29:25;1.53;;;1.23;;
22955;SDS011;40888;48.148;11.526;2023-11-19T17:31:51;1.13;;;1.13;;
22955;SDS011;40888;48.148;11.526;2023-11-19T17:34:17;1.37;;;1.20;;
22955;SDS011;40888;48.148;11.526;2023-11-19T17:36:46;4.60;;;1.00;;
22955;SDS011;40888;48.148;11.526;2023-11-19T17:39:12;1.33;;;1.23;;
22955;SDS011;40888;48.148;11.526;2023-11-19T17:41:38;1.37;;;1.10;;
22955;SDS011;40888;48.148;11.526;2023-11-19T17:44:04;2.40;;;1.10;;
22955;SDS011;40888;48.148;11.526;2023-11-19T17:46:30;2.00;;;1.20;;
22955;SDS011;40888;48.148;11.526;2023-11-19T17:48:56;1.43;;;1.10;;
22955;SDS011;40888;48.148;11.526;2023-11-19T17:51:22;1.43;;;1.20;;
22955;SDS011;40888;48.148;11.526;2023-11-19T17:53:48;1.03;;;1.03;;
22955;SDS011;40888;48.148;11.526;2023-11-19T17:56:15;1.70;;;1.30;;
22955;SDS011;40888;48.148;11.526;2023-11-19T17:58:41;1.23;;;1.13;;
22955;SDS011;40888;48.148;11.526;2023-11-19T18:01:07;0.90;;;0.80;;
22955;SDS011;40888;48.148;11.526;2023-11-19T18:03:33;1.10;;;1.10;;
22955;SDS011;40888;48.148;11.526;2023-11-19T18:05:59;1.30;;;1.20;;
22955;SDS011;40888;48.148;11.526;2023-11-19T18:08:25;1.37;;;1.00;;
22955;SDS011;40888;48.148;11.526;2023-11-19T18:10:51;1.00;;;1.00;;
22955;SDS011;40888;48.148;11.526;2023-11-19T18:13:17;1.97;;;1.20;;
22955;SDS011;40888;48.148;11.526;2023-11-19T18:15:44;1.50;;;1.40;;
22955;SDS011;40888;48.148;11.526;2023-11-19T18:18:10;2.37;;;1.57;;
22955;SDS011;40888;48.148;11.526;2023-11-19T18:20:37;2.30;;;1.27;;
22955;SDS011;40888;48.148;11.526;2023-11-19T18:23:03;2.00;;;1.30;;
22955;SDS011;40888;48.148;11.526;2023-11-19T18:25:30;2.17;;;1.20;;
22955;SDS011;40888;48.148;11.526;2023-11-19T18:27:57;1.63;;;1.50;;
22955;SDS011;40888;48.148;11.526;2023-11-19T18:30:23;1.50;;;1.40;;
22955;SDS011;40888;48.148;11.526;2023-11-19T18:32:49;2.73;;;1.40;;
22955;SDS011;40888;48.148;11.526;2023-11-19T18:35:15;4.13;;;1.43;;
22955;SDS011;40888;48.148;11.526;2023-11-19T18:37:47;1.50;;;1.40;;
22955;SDS011;40888;48.148;11.526;2023-11-19T18:40:13;1.37;;;1.00;;
22955;SDS011;40888;48.148;11.526;2023-11-19T18:42:43;4.37;;;1.27;;
22955;SDS011;40888;48.148;11.526;2023-11-19T18:45:10;4.20;;;1.80;;
22955;SDS011;40888;48.148;11.526;2023-11-19T18:47:36;4.57;;;2.90;;
22955;SDS011;40888;48.148;11.526;2023-11-19T18:50:03;1.43;;;1.23;;
22955;SDS011;40888;48.148;11.526;2023-11-19T18:52:29;4.93;;;2.13;;
22955;SDS011;40888;48.148;11.526;2023-11-19T18:54:56;2.40;;;1.73;;
22955;SDS011;40888;48.148;11.526;2023-11-19T18:57:24;4.67;;;2.20;;
22955;SDS011;40888;48.148;11.526;2023-11-19T18:59:50;2.40;;;1.37;;
22955;SDS011;40888;48.148;11.526;2023-11-19T19:02:18;2.60;;;1.30;;
22955;SDS011;40888;48.148;11.526;2023-11-19T19:04:44;3.00;;;1.50;;
22955;SDS011;40888;48.148;11.526;2023-11-19T19:07:10;2.20;;;1.60;;
22955;SDS011;40888;48.148;11.526;2023-11-19T19:09:36;3.53;;;1.70;;
22955;SDS011;40888;48.148;11.526;2023-11-19T19:12:02;5.10;;;1.77;;
22955;SDS011;40888;48.148;11.526;2023-11-19T19:14:29;3.10;;;1.53;;
22955;SDS011;40888;48.148;11.526;2023-11-19T19:16:55;5.37;;;1.77;;
22955;SDS011;40888;48.148;11.526;2023-11-19T19:19:21;1.50;;;1.37;;
22955;SDS011;40888;48.148;11.526;2023-11-19T19:21:48;3.73;;;1.47;;
22955;SDS011;40888;48.148;11.526;2023-11-19T19:24:14;1.70;;;1.43;;
22955;SDS011;40888;48.148;11.526;2023-11-19T19:26:40;2.50;;;1.47;;
22955;SDS011;40888;48.148;11.526;2023-11-19T19:29:09;1.87;;;1.30;;
22955;SDS011;40888;48.148;11.526;2023-11-19T19:31:36;3.13;;;1.30;;
22955;SDS011;40888;48.148;11.526;2023-11-19T19:34:02;1.40;;;1.30;;
22955;SDS011;40888;48.148;11.526;2023-11-19T19:36:28;2.67;;;1.53;;
22955;SDS011;40888;48.148;11.526;2023-11-19T19:38:56;2.20;;;1.37;;
22955;SDS011;40888;48.148;11.526;2023-11-19T19:41:22;2.63;;;1.40;;
22955;SDS011;40888;48.148;11.526;2023-11-19T19:43:49;1.50;;;1.40;;
22955;SDS011;40888;48.148;11.526;2023-11-19T19:46:15;3.70;;;1.50;;
22955;SDS011;40888;48.148;11.526;2023-11-19T19:48:41;1.70;;;1.30;;
22955;SDS011;40888;48.148;11.526;2023-11-19T19:51:09;2.67;;;1.47;;
22955;SDS011;40888;48.148;11.526;2023-11-19T19:53:35;2.40;;;1.40;;
22955;SDS011;40888;48.148;11.526;2023-11-19T19:56:06;2.33;;;1.70;;
22955;SDS011;40888;48.148;11.526;2023-11-19T19:58:33;2.43;;;1.20;;
22955;SDS011;40888;48.148;11.526;2023-11-19T20:01:00;2.03;;;1.53;;
22955;SDS011;40888;48.148;11.526;2023-11-19T20:03:53;2.40;;;1.50;;
22955;SDS011;40888;48.148;11.526;2023-11-19T20:06:19;2.00;;;1.30;;
22955;SDS011;40888;48.148;11.526;2023-11-19T20:08:46;4.53;;;1.43;;
22955;SDS011;40888;48.148;11.526;2023-11-19T20:11:16;2.37;;;1.50;;
22955;SDS011;40888;48.148;11.526;2023-11-19T20:13:42;3.30;;;1.33;;
22955;SDS011;40888;48.148;11.526;2023-11-19T20:16:08;1.60;;;1.50;;
22955;SDS011;40888;48.148;11.526;2023-11-19T20:18:35;1.30;;;1.20;;
22955;SDS011;40888;48.148;11.526;2023-11-19T20:21:30;3.20;;;1.60;;
22955;SDS011;40888;48.148;11.526;2023-11-19T20:23:56;2.07;;;1.30;;
22955;SDS011;40888;48.148;11.526;2023-11-19T20:26:22;1.90;;;1.47;;
22955;SDS011;40888;48.148;11.526;2023-11-19T20:28:48;1.97;;;1.60;;
22955;SDS011;40888;48.148;11.526;2023-11-19T20:31:15;3.40;;;1.20;;
22955;SDS011;40888;48.148;11.526;2023-11-19T20:33:43;1.80;;;1.33;;
22955;SDS011;40888;48.148;11.526;2023-11-19T20:36:18;1.90;;;1.40;;
22955;SDS011;40888;48.148;11.526;2023-11-19T20:38:45;2.17;;;1.33;;
22955;SDS011;40888;48.148;11.526;2023-11-19T20:41:11;2.00;;;1.80;;
22955;SDS011;40888;48.148;11.526;2023-11-19T20:43:40;1.90;;;1.33;;
22955;SDS011;40888;48.148;11.526;2023-11-19T20:46:06;2.33;;;1.37;;
22955;SDS011;40888;48.148;11.526;2023-11-19T20:48:32;1.20;;;1.10;;
22955;SDS011;40888;48.148;11.526;2023-11-19T20:50:59;1.37;;;1.27;;
22955;SDS011;40888;48.148;11.526;2023-11-19T20:53:25;3.40;;;1.20;;
22955;SDS011;40888;48.148;11.526;2023-11-19T20:55:51;3.13;;;1.20;;
22955;SDS011;40888;48.148;11.526;2023-11-19T20:58:17;1.20;;;1.10;;
22955;SDS011;40888;48.148;11.526;2023-11-19T21:00:43;1.57;;;1.43;;
22955;SDS011;40888;48.148;11.526;2023-11-19T21:03:11;2.30;;;1.20;;
22955;SDS011;40888;48.148;11.526;2023-11-19T21:05:37;1.17;;;1.10;;
22955;SDS011;40888;48.148;11.526;2023-11-19T21:08:04;2.63;;;1.33;;
22955;SDS011;40888;48.148;11.526;2023-11-19T21:10:31;1.67;;;1.50;;
22955;SDS011;40888;48.148;11.526;2023-11-19T21:12:57;1.10;;;1.00;;
22955;SDS011;40888;48.148;11.526;2023-11-19T21:15:25;1.00;;;1.00;;
22955;SDS011;40888;48.148;11.526;2023-11-19T21:17:52;2.20;;;1.00;;
22955;SDS011;40888;48.148;11.526;2023-11-19T21:20:18;2.23;;;1.13;;
22955;SDS011;40888;48.148;11.526;2023-11-19T21:22:44;2.53;;;1.03;;
22955;SDS011;40888;48.148;11.526;2023-11-19T21:25:11;1.10;;;1.00;;
22955;SDS011;40888;48.148;11.526;2023-11-19T21:27:37;1.80;;;1.10;;
22955;SDS011;40888;48.148;11.526;2023-11-19T21:30:03;1.20;;;0.80;;
22955;SDS011;40888;48.148;11.526;2023-11-19T21:32:30;0.90;;;0.90;;
22955;SDS011;40888;48.148;11.526;2023-11-19T21:34:57;1.13;;;0.93;;
22955;SDS011;40888;48.148;11.526;2023-11-19T21:37:23;1.30;;;1.20;;
22955;SDS011;40888;48.148;11.526;2023-11-19T21:39:49;0.97;;;0.80;;
22955;SDS011;40888;48.148;11.526;2023-11-19T21:42:15;1.40;;;1.20;;
22955;SDS011;40888;48.148;11.526;2023-11-19T21:44:41;1.07;;;0.97;;
22955;SDS011;40888;48.148;11.526;2023-11-19T21:47:08;2.30;;;1.23;;
22955;SDS011;40888;48.148;11.526;2023-11-19T21:49:34;1.57;;;1.00;;
22955;SDS011;40888;48.148;11.526;2023-11-19T21:52:00;2.50;;;0.97;;
22955;SDS011;40888;48.148;11.526;2023-11-19T21:54:26;2.40;;;1.30;;
22955;SDS011;40888;48.148;11.526;2023-11-19T21:56:52;1.20;;;1.00;;
22955;SDS011;40888;48.148;11.526;2023-11-19T21:59:19;0.80;;;0.80;;
22955;SDS011;40888;48.148;11.526;2023-11-19T22:01:45;2.30;;;0.90;;
22955;SDS011;40888;48.148;11.526;2023-11-19T22:04:11;0.80;;;0.80;;
22955;SDS011;40888;48.148;11.526;2023-11-19T22:06:37;2.27;;;1.10;;
22955;SDS011;40888;48.148;11.526;2023-11-19T22:09:03;0.90;;;0.60;;
22955;SDS011;40888;48.148;11.526;2023-11-19T22:11:30;0.93;;;0.87;;
22955;SDS011;40888;48.148;11.526;2023-11-19T22:13:57;1.60;;;1.10;;
22955;SDS011;40888;48.148;11.526;2023-11-19T22:16:23;1.23;;;0.97;;
22955;SDS011;40888;48.148;11.526;2023-11-19T22:18:49;3.33;;;1.07;;
22955;SDS011;40888;48.148;11.526;2023-11-19T22:21:15;0.67;;;0.67;;
22955;SDS011;40888;48.148;11.526;2023-11-19T22:23:41;1.37;;;0.90;;
22955;SDS011;40888;48.148;11.526;2023-11-19T22:26:07;0.83;;;0.67;;
22955;SDS011;40888;48.148;11.526;2023-11-19T22:28:33;1.93;;;1.10;;
22955;SDS011;40888;48.148;11.526;2023-11-19T22:31:02;2.43;;;0.80;;
22955;SDS011;40888;48.148;11.526;2023-11-19T22:33:28;1.07;;;0.97;;
22955;SDS011;40888;48.148;11.526;2023-11-19T22:35:54;1.20;;;1.00;;
22955;SDS011;40888;48.148;11.526;2023-11-19T22:38:20;1.27;;;0.90;;
22955;SDS011;40888;48.148;11.526;2023-11-19T22:40:47;1.00;;;0.80;;
22955;SDS011;40888;48.148;11.526;2023-11-19T22:43:13;1.03;;;0.80;;
22955;SDS011;40888;48.148;11.526;2023-11-19T22:45:39;1.37;;;0.73;;
22955;SDS011;40888;48.148;11.526;2023-11-19T22:48:05;0.80;;;0.80;;
22955;SDS011;40888;48.148;11.526;2023-11-19T22:50:31;0.90;;;0.90;;
22955;SDS011;40888;48.148;11.526;2023-11-19T22:52:58;0.80;;;0.80;;
22955;SDS011;40888;48.148;11.526;2023-11-19T22:55:25;1.80;;;0.80;;
22955;SDS011;40888;48.148;11.526;2023-11-19T22:57:51;0.80;;;0.77;;
22955;SDS011;40888;48.148;11.526;2023-11-19T23:00:17;1.47;;;1.00;;
22955;SDS011;40888;48.148;11.526;2023-11-19T23:02:53;1.10;;;0.70;;
22955;SDS011;40888;48.148;11.526;2023-11-19T23:05:20;2.50;;;0.90;;
22955;SDS011;40888;48.148;11.526;2023-11-19T23:07:46;0.80;;;0.80;;
22955;SDS011;40888;48.148;11.526;2023-11-19T23:10:12;2.30;;;0.70;;
22955;SDS011;40888;48.148;11.526;2023-11-19T23:12:41;0.70;;;0.70;;
22955;SDS011;40888;48.148;11.526;2023-11-19T23:15:07;0.97;;;0.70;;
22955;SDS011;40888;48.148;11.526;2023-11-19T23:17:39;2.10;;;0.67;;
22955;SDS011;40888;48.148;11.526;2023-11-19T23:20:05;1.23;;;0.80;;
22955;SDS011;40888;48.148;11.526;2023-11-19T23:22:35;1.80;;;1.10;;
22955;SDS011;40888;48.148;11.526;2023-11-19T23:25:02;0.70;;;0.70;;
22955;SDS011;40888;48.148;11.526;2023-11-19T23:27:28;0.70;;;0.70;;
22955;SDS011;40888;48.148;11.526;2023-11-19T23:29:54;1.07;;;0.80;;
22955;SDS011;40888;48.148;11.526;2023-11-19T23:32:20;0.77;;;0.70;;
22955;SDS011;40888;48.148;11.526;2023-11-19T23:34:46;0.80;;;0.70;;
22955;SDS011;40888;48.148;11.526;2023-11-19T23:37:12;0.97;;;0.63;;
22955;SDS011;40888;48.148;11.526;2023-11-19T23:39:38;0.83;;;0.57;;
22955;SDS011;40888;48.148;11.526;2023-11-19T23:42:04;0.50;;;0.50;;
22955;SDS011;40888;48.148;11.526;2023-11-19T23:44:31;1.17;;;0.70;;
22955;SDS011;40888;48.148;11.526;2023-11-19T23:46:57;1.13;;;1.03;;
22955;SDS011;40888;48.148;11.526;2023-11-19T23:49:23;0.63;;;0.63;;
22955;SDS011;40888;48.148;11.526;2023-11-19T23:51:50;1.90;;;0.80;;
22955;SDS011;40888;48.148;11.526;2023-11-19T23:54:16;0.97;;;0.90;;
22955;SDS011;40888;48.148;11.526;2023-11-19T23:56:42;0.70;;;0.57;;
22955;SDS011;40888;48.148;11.526;2023-11-19T23:59:08;0.67;;;0.67;;
